Time;durP1;ratioP1;P1;durP2;ratioP2;P2;SDS_P1;SDS_P2;PMS_P1;PMS_P2;Temp;Humidity;BMP_temperature;BMP_pressure;BME280_temperature;BME280_humidity;BME280_pressure;Samples;Min_cycle;Max_cycle;Signal;HPM_P1;HPM_P2
2022/12/22 03:26:32;;;;;;;234.95;134.50;;;7.40;99.90;;;;;;5063600;28;20033;-75
2022/12/22 03:28:59;;;;;;;226.63;134.23;;;7.30;1.00;;;;;;5061468;28;20052;-74
2022/12/22 03:31:27;;;;;;;234.73;138.23;;;7.30;99.90;;;;;;5053048;28;20046;-76
2022/12/22 03:33:56;;;;;;;235.60;137.55;;;7.30;1.00;;;;;;5052271;28;20072;-75
2022/12/22 03:36:23;;;;;;;224.25;135.50;;;7.30;1.00;;;;;;5051277;28;20225;-76
2022/12/22 03:38:50;;;;;;;233.63;141.45;;;7.30;99.90;;;;;;5051393;28;20123;-76
2022/12/22 03:46:44;;;;;;;185.57;111.88;;;7.20;99.90;;;;;;5051117;28;20041;-75
2022/12/22 03:49:12;;;;;;;172.05;104.00;;;7.20;1.00;;;;;;5051265;28;20071;-76
2022/12/22 03:51:43;;;;;;;175.45;104.45;;;7.30;99.90;;;;;;5049531;28;20080;-74
2022/12/22 03:54:11;;;;;;;174.88;106.45;;;7.20;1.00;;;;;;5050958;28;20040;-75
2022/12/22 03:56:39;;;;;;;172.93;105.32;;;7.30;99.90;;;;;;5050771;28;20029;-75
2022/12/22 03:59:07;;;;;;;179.82;106.50;;;7.30;20.60;;;;;;5051664;28;20045;-75
2022/12/22 04:01:38;;;;;;;175.75;107.45;;;7.30;1.00;;;;;;5051944;28;20476;-75
2022/12/22 04:04:06;;;;;;;176.75;107.80;;;7.30;1.00;;;;;;5033809;28;20467;-76
2022/12/22 04:06:35;;;;;;;183.07;111.18;;;7.30;1.00;;;;;;5050957;28;20075;-75
2022/12/22 04:09:02;;;;;;;170.20;106.45;;;7.30;1.00;;;;;;5050652;28;20041;-74
2022/12/22 04:14:14;;;;;;;182.15;112.82;;;7.30;99.90;;;;;;5033428;28;20041;-75
2022/12/22 04:16:42;;;;;;;177.98;108.03;;;7.30;1.00;;;;;;5049602;28;20044;-75
2022/12/22 04:19:10;;;;;;;174.43;104.45;;;7.30;1.00;;;;;;5050454;28;20114;-75
2022/12/22 04:21:39;;;;;;;168.95;103.50;;;7.30;1.00;;;;;;5050814;28;20041;-76
2022/12/22 04:24:07;;;;;;;165.60;98.82;;;7.30;1.00;;;;;;5051136;28;20037;-75
2022/12/22 04:26:34;;;;;;;161.15;95.55;;;7.30;1.00;;;;;;5049377;28;20079;-75
2022/12/22 04:29:02;;;;;;;142.00;88.75;;;7.30;1.00;;;;;;5051194;28;20037;-75
2022/12/22 04:31:29;;;;;;;144.18;86.97;;;7.30;1.00;;;;;;5053632;28;20045;-76
2022/12/22 04:33:57;;;;;;;136.75;81.10;;;7.30;78.50;;;;;;5052331;28;20057;-74
2022/12/22 04:36:24;;;;;;;136.13;84.82;;;7.30;24.50;;;;;;5049822;28;20053;-75
2022/12/22 04:38:53;;;;;;;151.35;89.35;;;7.30;1.00;;;;;;5051328;28;20041;-76
2022/12/22 04:41:20;;;;;;;142.27;87.57;;;7.30;1.00;;;;;;5050940;28;20041;-76
2022/12/22 04:43:47;;;;;;;141.63;84.13;;;7.40;1.00;;;;;;5052202;28;20052;-75
2022/12/22 04:46:15;;;;;;;149.02;87.68;;;7.30;99.90;;;;;;5052269;28;20041;-76
2022/12/22 04:48:42;;;;;;;130.15;77.05;;;7.40;1.00;;;;;;5053762;28;20048;-76
2022/12/22 04:51:09;;;;;;;122.47;73.88;;;7.40;1.00;;;;;;5056810;28;20048;-76
2022/12/22 04:53:37;;;;;;;129.00;80.15;;;7.50;1.00;;;;;;5056833;28;20045;-76
2022/12/22 04:56:07;;;;;;;137.10;84.22;;;7.50;1.00;;;;;;5055718;28;20048;-76
2022/12/22 04:58:35;;;;;;;141.68;84.18;;;7.50;1.00;;;;;;5057265;28;20102;-74
2022/12/22 05:01:10;;;;;;;130.32;80.72;;;7.50;16.60;;;;;;5055246;28;20040;-76
2022/12/22 05:03:37;;;;;;;119.65;72.82;;;7.50;99.90;;;;;;5062059;28;20128;-76
2022/12/22 05:06:05;;;;;;;116.68;70.80;;;7.50;1.00;;;;;;5052731;28;20053;-76
2022/12/22 05:08:33;;;;;;;119.63;72.40;;;7.60;99.90;;;;;;5051001;28;20045;-74
2022/12/22 05:11:01;;;;;;;118.20;74.47;;;7.60;99.90;;;;;;5051097;28;20049;-76
2022/12/22 05:13:30;;;;;;;125.70;76.47;;;7.70;1.00;;;;;;5050842;28;20098;-74
2022/12/22 05:16:05;;;;;;;123.50;77.30;;;7.70;1.00;;;;;;5049469;28;20130;-74
2022/12/22 05:18:32;;;;;;;154.45;94.22;;;7.80;1.00;;;;;;5050385;28;20080;-76
2022/12/22 05:21:03;;;;;;;150.23;94.25;;;7.80;99.90;;;;;;5031811;28;20527;-74
2022/12/22 05:23:30;;;;;;;161.07;99.00;;;7.80;99.90;;;;;;5058625;28;20041;-75
2022/12/22 05:25:58;;;;;;;155.15;95.45;;;7.70;99.90;;;;;;5053453;28;20049;-74
2022/12/22 05:28:25;;;;;;;162.68;99.07;;;7.70;99.90;;;;;;5050261;28;20045;-74
2022/12/22 05:30:54;;;;;;;149.23;91.57;;;7.70;99.90;;;;;;5049982;28;20041;-75
2022/12/22 05:33:22;;;;;;;160.32;97.25;;;7.70;99.90;;;;;;5050220;28;20049;-74
2022/12/22 05:35:49;;;;;;;153.98;92.28;;;7.70;1.00;;;;;;5049224;28;20053;-74
2022/12/22 05:38:16;;;;;;;151.38;95.65;;;7.70;1.00;;;;;;5049208;28;20037;-76
2022/12/22 05:40:44;;;;;;;147.63;89.22;;;7.70;1.00;;;;;;5032071;28;20037;-75
2022/12/22 05:43:11;;;;;;;156.30;92.03;;;7.80;1.00;;;;;;5049632;28;20045;-75
2022/12/22 05:45:38;;;;;;;154.13;98.63;;;7.80;1.00;;;;;;5031649;28;20060;-75
2022/12/22 05:48:07;;;;;;;161.95;97.65;;;7.90;1.00;;;;;;5049038;28;20044;-75
2022/12/22 05:50:35;;;;;;;163.52;101.00;;;7.90;1.00;;;;;;5049702;28;20116;-75
2022/12/22 05:53:05;;;;;;;156.27;99.20;;;7.90;99.90;;;;;;5049930;28;20112;-76
2022/12/22 05:55:33;;;;;;;161.20;100.30;;;7.90;99.90;;;;;;5049743;28;20068;-75
2022/12/22 05:58:01;;;;;;;163.05;100.65;;;7.90;1.00;;;;;;5048054;28;20041;-75
2022/12/22 06:00:29;;;;;;;174.55;106.72;;;7.90;28.80;;;;;;5049340;28;20069;-76
2022/12/22 06:02:57;;;;;;;184.30;110.22;;;7.90;23.90;;;;;;5049499;28;20038;-75
2022/12/22 06:05:26;;;;;;;185.02;108.80;;;7.90;1.00;;;;;;5049276;28;20052;-75
2022/12/22 06:07:53;;;;;;;178.55;107.32;;;7.80;99.90;;;;;;5048168;28;20048;-75
2022/12/22 06:10:20;;;;;;;193.65;112.55;;;7.80;1.00;;;;;;5048318;28;20033;-76
2022/12/22 06:12:48;;;;;;;195.32;117.13;;;7.80;99.90;;;;;;5049007;28;20045;-76
2022/12/22 06:15:16;;;;;;;204.73;116.15;;;7.80;1.00;;;;;;5049377;28;20488;-76
2022/12/22 06:17:43;;;;;;;219.45;120.50;;;7.80;1.00;;;;;;5047707;28;20586;-75
2022/12/22 06:20:12;;;;;;;241.57;131.40;;;7.70;1.00;;;;;;5048237;28;20048;-76
2022/12/22 06:22:41;;;;;;;221.98;124.60;;;7.70;1.00;;;;;;5049001;28;20124;-75
2022/12/22 06:25:09;;;;;;;199.82;117.78;;;7.70;99.90;;;;;;5051429;28;20497;-76
2022/12/22 06:27:36;;;;;;;185.85;108.63;;;7.70;1.00;;;;;;5056385;28;20044;-75
2022/12/22 06:30:04;;;;;;;180.50;107.78;;;7.60;1.00;;;;;;5051880;28;20052;-75
2022/12/22 06:32:32;;;;;;;197.68;118.28;;;7.60;1.00;;;;;;5048017;28;20045;-76
2022/12/22 06:34:59;;;;;;;231.60;134.38;;;7.60;1.00;;;;;;5053277;28;20033;-76
2022/12/22 06:37:27;;;;;;;211.32;125.40;;;7.60;99.90;;;;;;5052870;28;20056;-74
2022/12/22 06:39:56;;;;;;;193.30;114.20;;;7.70;99.90;;;;;;5042439;28;20064;-75
2022/12/22 06:45:09;;;;;;;186.68;114.45;;;7.70;1.00;;;;;;5051904;28;20045;-75
2022/12/22 06:47:36;;;;;;;211.30;124.38;;;7.70;1.00;;;;;;5052721;28;20120;-75
2022/12/22 06:50:05;;;;;;;208.73;122.72;;;7.80;99.90;;;;;;5052592;28;20040;-76
2022/12/22 06:52:32;;;;;;;197.77;116.50;;;7.80;1.00;;;;;;5052833;28;20059;-77
2022/12/22 06:55:01;;;;;;;197.73;118.75;;;7.80;1.00;;;;;;5050971;28;20072;-75
2022/12/22 06:57:29;;;;;;;226.95;132.55;;;7.90;1.00;;;;;;5051825;28;20077;-76
2022/12/22 06:59:56;;;;;;;222.55;130.25;;;7.90;99.90;;;;;;5052548;28;20136;-76
2022/12/22 07:02:23;;;;;;;217.70;126.60;;;8.00;99.90;;;;;;5052684;28;20037;-75
2022/12/22 07:04:51;;;;;;;227.68;130.00;;;8.00;1.00;;;;;;5052400;28;20037;-75
2022/12/22 07:07:18;;;;;;;244.57;141.15;;;8.00;43.20;;;;;;5052014;28;20048;-76
2022/12/22 07:09:45;;;;;;;272.45;151.77;;;8.10;1.00;;;;;;5052173;28;20041;-76
2022/12/22 07:12:14;;;;;;;278.13;152.77;;;8.10;1.00;;;;;;5051974;28;20056;-76
2022/12/22 07:14:42;;;;;;;272.30;155.65;;;8.30;1.00;;;;;;5052519;28;20510;-77
2022/12/22 07:17:09;;;;;;;286.88;164.02;;;8.30;1.00;;;;;;5051846;28;20396;-75
2022/12/22 07:19:36;;;;;;;273.08;154.45;;;8.40;99.90;;;;;;5031371;28;20104;-75
2022/12/22 07:22:04;;;;;;;265.08;151.35;;;8.40;1.00;;;;;;5031026;28;20041;-75
2022/12/22 07:24:31;;;;;;;227.30;137.70;;;8.40;1.00;;;;;;5032350;28;20040;-74
2022/12/22 07:26:59;;;;;;;245.15;143.88;;;8.50;99.90;;;;;;5031706;28;20172;-76
2022/12/22 07:29:28;;;;;;;246.20;143.43;;;8.50;1.00;;;;;;5033400;28;20064;-74
2022/12/22 07:31:55;;;;;;;246.77;142.20;;;8.60;1.00;;;;;;5032209;28;20076;-75
2022/12/22 07:34:23;;;;;;;252.00;145.35;;;8.70;1.00;;;;;;5032027;28;20033;-75
2022/12/22 07:36:50;;;;;;;238.98;140.75;;;8.70;99.90;;;;;;5031864;28;20045;-75
2022/12/22 07:39:17;;;;;;;234.15;135.40;;;8.80;99.90;;;;;;5031727;28;20049;-75
2022/12/22 07:44:31;;;;;;;232.07;128.88;;;8.90;1.00;;;;;;5033171;28;20493;-74
2022/12/22 07:46:58;;;;;;;224.63;131.10;;;9.00;99.90;;;;;;5030602;28;20041;-76
2022/12/22 07:52:10;;;;;;;202.20;121.28;;;9.30;1.00;;;;;;5031727;28;20215;-75
2022/12/22 07:54:38;;;;;;;203.52;122.85;;;9.40;99.90;;;;;;5034257;28;20045;-75
2022/12/22 07:57:05;;;;;;;205.90;123.13;;;9.50;1.00;;;;;;5037308;28;20049;-76
2022/12/22 07:59:34;;;;;;;205.27;121.35;;;9.70;1.00;;;;;;5032275;28;20045;-76
2022/12/22 08:02:01;;;;;;;197.00;120.22;;;9.80;99.90;;;;;;5031441;28;20045;-76
2022/12/22 08:04:29;;;;;;;201.95;123.13;;;9.90;99.90;;;;;;5030952;28;20049;-76
2022/12/22 08:06:56;;;;;;;202.48;122.32;;;9.90;55.90;;;;;;5030811;28;20432;-76
2022/12/22 08:09:23;;;;;;;202.30;121.55;;;9.90;99.90;;;;;;5035965;28;20045;-76
2022/12/22 08:11:51;;;;;;;205.68;126.53;;;9.80;10.00;;;;;;5023080;28;20045;-76
2022/12/22 08:14:18;;;;;;;216.02;125.75;;;9.80;27.10;;;;;;5043387;28;20052;-76
2022/12/22 08:16:47;;;;;;;216.35;129.32;;;9.80;99.90;;;;;;5036653;28;20030;-75
2022/12/22 08:19:14;;;;;;;207.82;124.70;;;9.90;99.90;;;;;;5048056;28;20060;-74
2022/12/22 08:21:41;;;;;;;221.82;128.68;;;9.90;68.60;;;;;;5051086;28;20049;-75
2022/12/22 08:24:09;;;;;;;227.40;132.05;;;9.90;1.00;;;;;;5051597;28;20510;-76
2022/12/22 08:26:40;;;;;;;227.00;132.27;;;10.00;57.20;;;;;;5050224;28;20041;-75
2022/12/22 08:29:11;;;;;;;231.35;132.52;;;10.10;1.00;;;;;;5050680;28;20049;-76
2022/12/22 08:31:39;;;;;;;214.63;126.18;;;10.10;1.00;;;;;;5050823;28;20134;-76
2022/12/22 08:34:10;;;;;;;179.18;108.13;;;10.20;1.00;;;;;;5050739;28;20045;-77
2022/12/22 08:36:40;;;;;;;159.77;98.88;;;10.30;1.00;;;;;;5050056;28;20048;-75
2022/12/22 08:39:07;;;;;;;168.48;95.07;;;10.20;1.00;;;;;;5050706;28;20033;-75
2022/12/22 08:41:51;;;;;;;159.80;94.25;;;10.30;1.00;;;;;;5050561;28;20042;-75
2022/12/22 08:44:20;;;;;;;163.27;98.00;;;10.40;1.00;;;;;;5050984;28;20044;-75
2022/12/22 08:46:47;;;;;;;158.80;99.03;;;10.50;1.00;;;;;;5031932;28;20053;-75
2022/12/22 08:49:16;;;;;;;167.88;101.88;;;10.60;1.00;;;;;;5050601;28;20053;-76
2022/12/22 08:51:44;;;;;;;170.77;104.75;;;10.70;1.00;;;;;;5049871;28;20045;-75
2022/12/22 08:54:12;;;;;;;165.88;103.40;;;10.80;1.00;;;;;;5050430;28;20037;-76
2022/12/22 08:56:39;;;;;;;180.82;107.65;;;10.80;99.90;;;;;;5048624;28;20046;-74
2022/12/22 08:59:08;;;;;;;179.48;109.93;;;10.80;99.90;;;;;;5048866;28;20041;-75
2022/12/22 09:01:37;;;;;;;178.60;112.43;;;11.00;99.90;;;;;;5050215;28;20147;-75
2022/12/22 09:04:05;;;;;;;203.10;122.10;;;11.10;96.10;;;;;;5050086;28;20095;-75
2022/12/22 09:06:34;;;;;;;194.55;121.15;;;11.20;1.00;;;;;;5049045;28;20488;-75
2022/12/22 09:09:04;;;;;;;199.90;121.85;;;11.10;48.90;;;;;;5050566;28;20054;-75
2022/12/22 09:11:32;;;;;;;196.70;121.15;;;11.30;9.60;;;;;;5049721;28;20060;-75
2022/12/22 09:14:01;;;;;;;200.55;122.93;;;11.40;1.00;;;;;;5050239;28;20064;-74
2022/12/22 09:16:29;;;;;;;200.77;123.13;;;11.60;1.00;;;;;;5049543;28;20468;-74
2022/12/22 09:18:57;;;;;;;206.38;123.00;;;11.80;1.00;;;;;;5062970;22;20052;-76
2022/12/22 09:21:25;;;;;;;210.50;120.63;;;11.80;1.00;;;;;;5053755;28;20453;-76
2022/12/22 09:23:55;;;;;;;203.38;122.95;;;11.80;1.00;;;;;;5054211;28;20454;-75
2022/12/22 09:26:23;;;;;;;198.70;122.68;;;11.90;1.00;;;;;;5070343;28;20462;-75
2022/12/22 09:28:51;;;;;;;189.20;115.18;;;11.80;1.00;;;;;;5072479;28;20041;-76
2022/12/22 09:31:19;;;;;;;190.63;118.60;;;11.80;1.00;;;;;;5054424;28;20044;-77
2022/12/22 09:33:47;;;;;;;200.07;119.75;;;11.80;1.00;;;;;;5051133;28;20037;-75
2022/12/22 09:36:26;;;;;;;198.38;121.80;;;11.90;1.00;;;;;;5052935;28;20049;-77
2022/12/22 09:38:55;;;;;;;195.77;120.82;;;11.80;1.00;;;;;;5051602;28;20106;-76
2022/12/22 09:41:30;;;;;;;184.90;115.75;;;11.80;1.00;;;;;;5052142;28;20485;-77
2022/12/22 09:43:58;;;;;;;198.30;118.70;;;11.80;1.00;;;;;;5053768;28;20041;-75
2022/12/22 09:46:29;;;;;;;196.27;120.00;;;11.60;1.00;;;;;;5055717;28;20040;-76
2022/12/22 09:48:56;;;;;;;179.10;109.70;;;11.60;1.00;;;;;;5057184;28;20044;-77
2022/12/22 09:51:26;;;;;;;172.43;106.22;;;11.60;1.00;;;;;;5051927;28;20128;-76
2022/12/22 09:53:58;;;;;;;151.63;94.20;;;11.80;1.00;;;;;;5057109;28;20045;-75
2022/12/22 09:56:28;;;;;;;188.63;115.32;;;12.00;1.00;;;;;;5067309;28;20072;-75
2022/12/22 09:58:57;;;;;;;159.52;95.93;;;12.20;1.00;;;;;;5067086;28;20037;-77
2022/12/22 10:01:37;;;;;;;157.38;95.93;;;12.40;1.00;;;;;;5066493;28;20037;-77
2022/12/22 10:04:12;;;;;;;160.98;95.35;;;12.60;1.00;;;;;;5069451;28;20028;-76
2022/12/22 10:06:46;;;;;;;143.48;91.45;;;12.60;99.90;;;;;;5063758;28;20047;-77
2022/12/22 10:09:19;;;;;;;132.70;81.27;;;12.70;99.90;;;;;;5055425;28;20055;-76
2022/12/22 10:11:51;;;;;;;130.02;80.40;;;12.90;99.90;;;;;;5053182;28;20500;-77
2022/12/22 10:14:19;;;;;;;145.18;89.38;;;12.90;99.90;;;;;;5049418;28;20428;-78
2022/12/22 10:16:47;;;;;;;135.38;86.95;;;12.80;99.90;;;;;;5051430;28;20056;-77
2022/12/22 10:19:15;;;;;;;151.43;90.95;;;12.90;99.90;;;;;;5051565;28;20061;-75
2022/12/22 10:21:42;;;;;;;141.15;93.18;;;13.20;99.90;;;;;;5058646;28;20044;-78
2022/12/22 10:24:26;;;;;;;163.10;96.35;;;13.40;99.90;;;;;;5051204;28;20060;-77
2022/12/22 10:26:56;;;;;;;166.45;102.00;;;13.50;99.90;;;;;;5067009;28;20041;-76
2022/12/22 10:29:24;;;;;;;169.77;103.65;;;13.40;99.90;;;;;;5070400;28;20051;-76
2022/12/22 10:32:00;;;;;;;174.50;105.20;;;13.50;99.90;;;;;;5067853;28;20041;-78
2022/12/22 10:34:27;;;;;;;176.63;104.88;;;13.60;99.90;;;;;;5055930;28;20037;-75
2022/12/22 10:36:59;;;;;;;169.95;106.93;;;13.70;99.90;;;;;;5055399;28;20048;-76
2022/12/22 10:39:30;;;;;;;156.82;98.22;;;13.80;99.90;;;;;;5053285;28;20068;-78
2022/12/22 10:42:02;;;;;;;151.60;93.75;;;13.70;99.90;;;;;;5057101;28;20041;-76
2022/12/22 10:44:32;;;;;;;149.23;93.28;;;13.80;99.90;;;;;;5051277;28;20049;-77
2022/12/22 10:47:11;;;;;;;149.75;92.20;;;13.90;99.90;;;;;;5050909;28;20509;-73
2022/12/22 10:49:43;;;;;;;138.05;87.90;;;13.90;99.90;;;;;;5053325;28;20120;-79
2022/12/22 10:52:13;;;;;;;156.10;91.38;;;13.90;99.90;;;;;;5052796;28;20040;-76
2022/12/22 10:54:44;;;;;;;151.65;98.85;;;13.90;77.80;;;;;;5051301;28;20048;-76
2022/12/22 10:57:29;;;;;;;144.73;87.90;;;13.70;37.90;;;;;;5050751;28;20045;-75
2022/12/22 10:59:58;;;;;;;131.60;84.78;;;13.60;66.20;;;;;;5063160;28;20175;-76
2022/12/22 11:02:32;;;;;;;151.38;91.05;;;13.60;34.50;;;;;;5066614;28;20060;-75
2022/12/22 11:05:08;;;;;;;131.25;80.20;;;13.60;23.20;;;;;;5064071;28;20044;-76
2022/12/22 11:07:37;;;;;;;131.70;76.53;;;13.50;12.20;;;;;;5063567;28;20600;-75
2022/12/22 11:10:17;;;;;;;112.82;69.38;;;13.50;11.40;;;;;;5054814;28;20661;-78
2022/12/22 11:13:14;;;;;;;136.75;80.65;;;13.50;8.70;;;;;;5049919;28;20076;-76
2022/12/22 11:15:48;;;;;;;120.45;73.70;;;13.60;1.00;;;;;;5048805;28;20120;-78
2022/12/22 11:18:45;;;;;;;118.70;74.53;;;13.60;1.00;;;;;;5050905;28;20060;-75
2022/12/22 11:21:20;;;;;;;118.72;66.75;;;13.60;1.00;;;;;;5053695;28;20052;-77
2022/12/22 11:23:58;;;;;;;110.57;66.03;;;13.50;1.00;;;;;;5056709;28;20459;-77
2022/12/22 11:26:40;;;;;;;108.53;64.40;;;13.50;1.00;;;;;;5056418;28;20045;-75
2022/12/22 11:29:26;;;;;;;105.82;62.22;;;13.50;1.00;;;;;;5060719;28;20048;-76
2022/12/22 11:32:07;;;;;;;106.85;60.28;;;13.60;1.00;;;;;;5073917;28;20040;-77
2022/12/22 11:34:47;;;;;;;88.65;56.58;;;13.70;1.00;;;;;;5055823;28;20408;-78
2022/12/22 11:37:35;;;;;;;90.10;55.90;;;13.80;1.00;;;;;;5053556;28;20044;-78
2022/12/22 11:40:16;;;;;;;87.75;54.60;;;13.80;1.00;;;;;;5051661;28;20036;-76
2022/12/22 11:43:01;;;;;;;75.55;49.22;;;13.70;1.00;;;;;;5054100;28;20037;-76
2022/12/22 11:45:47;;;;;;;77.00;48.90;;;13.60;1.00;;;;;;5053275;28;20041;-76
2022/12/22 11:48:48;;;;;;;75.95;46.35;;;13.50;1.00;;;;;;5052358;28;20084;-75
2022/12/22 11:51:27;;;;;;;71.05;46.72;;;13.40;1.00;;;;;;5051957;28;20322;-76
2022/12/22 11:54:14;;;;;;;81.40;47.70;;;13.50;1.00;;;;;;5054538;28;20041;-75
2022/12/22 11:56:45;;;;;;;83.78;50.22;;;13.60;1.00;;;;;;5057776;28;20390;-75
2022/12/22 11:59:37;;;;;;;76.47;48.92;;;13.70;1.00;;;;;;5058244;28;20059;-74
2022/12/22 12:02:30;;;;;;;81.60;50.50;;;13.70;1.00;;;;;;5064985;28;20048;-77
2022/12/22 12:05:27;;;;;;;88.40;50.58;;;13.80;1.00;;;;;;5034393;28;20052;-75
2022/12/22 12:08:02;;;;;;;99.88;57.25;;;13.80;1.00;;;;;;5050236;28;20060;-75
2022/12/22 12:10:32;;;;;;;;;;;13.70;1.00;;;;;;5052508;28;20041;-73
2022/12/22 12:13:07;;;;;;;93.60;57.35;;;13.70;1.00;;;;;;5048500;28;19925;-74
2022/12/22 12:15:40;;;;;;;99.20;59.80;;;13.80;1.00;;;;;;5053947;28;20040;-76
2022/12/22 12:18:37;;;;;;;89.47;57.88;;;13.80;1.00;;;;;;5052015;28;20421;-75
2022/12/22 12:21:20;;;;;;;97.00;53.97;;;13.80;1.00;;;;;;5056480;28;20151;-75
2022/12/22 12:24:10;;;;;;;138.88;89.57;;;13.90;1.00;;;;;;5056010;28;20037;-76
2022/12/22 12:26:49;;;;;;;131.48;79.00;;;13.80;1.00;;;;;;5052496;28;20037;-76
2022/12/22 12:29:20;;;;;;;114.38;70.90;;;13.80;1.00;;;;;;5051377;28;20476;-78
2022/12/22 12:31:53;;;;;;;129.27;79.45;;;13.90;1.00;;;;;;5052269;28;20040;-76
2022/12/22 12:34:22;;;;;;;114.05;68.53;;;13.80;1.00;;;;;;5053665;28;20048;-75
2022/12/22 12:36:57;;;;;;;123.82;72.32;;;13.70;1.00;;;;;;5053553;28;20037;-78
2022/12/22 12:39:31;;;;;;;119.10;73.32;;;13.70;1.00;;;;;;5066496;28;20033;-75
2022/12/22 12:42:08;;;;;;;128.55;78.70;;;13.70;1.00;;;;;;5068352;28;20044;-75
2022/12/22 12:44:38;;;;;;;141.40;83.75;;;13.60;1.00;;;;;;5055257;28;20041;-77
2022/12/22 12:47:24;;;;;;;128.27;80.93;;;13.60;1.00;;;;;;5069022;28;20037;-77
2022/12/22 12:50:32;;;;;;;148.82;84.72;;;13.60;1.00;;;;;;5074637;28;20238;-77
2022/12/22 12:53:09;;;;;;;123.43;76.13;;;13.70;1.00;;;;;;5058831;28;20041;-74
2022/12/22 12:56:06;;;;;;;135.77;81.50;;;13.70;3.80;;;;;;5055736;28;20068;-77
2022/12/22 12:58:53;;;;;;;129.27;76.60;;;13.70;6.10;;;;;;5058078;28;20044;-76
2022/12/22 13:01:55;;;;;;;120.68;71.47;;;13.70;1.00;;;;;;5055413;28;20038;-75
2022/12/22 13:04:56;;;;;;;127.03;76.57;;;13.70;1.00;;;;;;5051113;28;20678;-77
2022/12/22 13:07:56;;;;;;;136.60;85.95;;;13.60;1.00;;;;;;5037938;28;20092;-77
2022/12/22 13:10:26;;;;;;;177.20;110.82;;;13.60;10.40;;;;;;5051069;28;20415;-77
2022/12/22 13:12:56;;;;;;;180.98;114.72;;;13.50;33.80;;;;;;5050942;28;20064;-76
2022/12/22 13:15:32;;;;;;;192.18;122.25;;;13.50;72.80;;;;;;5050731;28;20045;-74
2022/12/22 13:18:00;;;;;;;186.38;116.88;;;13.50;81.30;;;;;;5051546;28;20049;-76
2022/12/22 13:20:31;;;;;;;160.82;102.15;;;13.50;86.40;;;;;;5051281;28;20045;-76
2022/12/22 13:23:00;;;;;;;154.90;97.63;;;13.50;79.90;;;;;;5052904;28;20049;-75
2022/12/22 13:25:41;;;;;;;156.50;89.68;;;13.50;43.40;;;;;;5051432;28;20492;-76
2022/12/22 13:28:16;;;;;;;138.32;87.20;;;13.50;30.20;;;;;;5050860;28;20132;-76
2022/12/22 13:30:47;;;;;;;142.90;86.50;;;13.50;58.50;;;;;;5054907;28;20067;-76
2022/12/22 13:33:18;;;;;;;148.25;86.53;;;13.50;60.80;;;;;;5052859;28;20055;-76
2022/12/22 13:35:47;;;;;;;145.70;85.60;;;13.50;64.90;;;;;;5058879;28;20040;-74
2022/12/22 13:38:31;;;;;;;137.07;82.53;;;13.50;51.00;;;;;;5054735;28;20056;-76
2022/12/22 13:41:02;;;;;;;135.20;79.68;;;13.50;62.50;;;;;;5057505;28;20048;-75
2022/12/22 13:43:32;;;;;;;135.07;80.60;;;13.50;45.40;;;;;;5061062;28;20057;-76
2022/12/22 13:46:03;;;;;;;134.95;82.72;;;13.50;53.90;;;;;;5050026;28;20047;-76
2022/12/22 13:48:37;;;;;;;138.35;89.13;;;13.40;58.80;;;;;;5051369;28;20067;-78
2022/12/22 13:51:08;;;;;;;142.50;87.90;;;13.30;92.40;;;;;;5047587;28;20048;-78
2022/12/22 13:53:39;;;;;;;139.20;88.28;;;13.30;99.90;;;;;;5050383;28;20033;-75
2022/12/22 13:56:13;;;;;;;148.27;91.63;;;13.30;99.90;;;;;;5049526;28;20037;-75
2022/12/22 13:58:44;;;;;;;;;;;13.30;99.90;;;;;;5049663;28;20045;-76
2022/12/22 14:01:17;;;;;;;167.02;100.03;;;13.30;99.90;;;;;;5051511;28;19928;-75
2022/12/22 14:03:50;;;;;;;155.85;99.88;;;13.20;99.90;;;;;;5050162;28;20045;-77
2022/12/22 14:06:26;;;;;;;180.40;113.32;;;13.20;99.90;;;;;;5051313;28;20115;-77
2022/12/22 14:08:57;;;;;;;180.45;114.15;;;13.20;99.90;;;;;;5049688;28;20040;-76
2022/12/22 14:11:26;;;;;;;192.43;115.13;;;13.20;99.90;;;;;;5051052;28;20423;-75
2022/12/22 14:13:54;;;;;;;188.48;116.45;;;13.10;99.90;;;;;;5050653;28;20116;-78
2022/12/22 14:16:21;;;;;;;206.52;119.45;;;13.10;99.90;;;;;;5047779;28;20068;-76
2022/12/22 14:18:50;;;;;;;207.57;126.18;;;13.00;99.90;;;;;;5049248;28;20059;-76
2022/12/22 14:21:18;;;;;;;222.18;130.10;;;13.00;99.90;;;;;;5049594;28;20123;-74
2022/12/22 14:23:47;;;;;;;239.82;140.75;;;13.00;99.90;;;;;;5051722;28;20128;-76
2022/12/22 14:26:21;;;;;;;247.70;144.93;;;13.00;99.90;;;;;;5066333;28;20084;-81
2022/12/22 14:28:53;;;;;;;267.13;153.70;;;13.00;99.90;;;;;;5057764;28;20081;-78
2022/12/22 14:31:21;;;;;;;297.63;167.05;;;13.00;99.90;;;;;;5054404;28;20064;-77
2022/12/22 14:33:54;;;;;;;307.92;176.50;;;12.90;99.90;;;;;;5055355;28;20628;-79
2022/12/22 14:36:23;;;;;;;378.98;218.75;;;12.90;1.00;;;;;;5048146;28;20037;-77
2022/12/22 14:38:53;;;;;;;388.52;225.55;;;12.80;1.00;;;;;;5049788;28;20080;-78
2022/12/22 14:41:45;;;;;;;374.90;221.90;;;12.80;1.00;;;;;;5048778;28;20072;-78
2022/12/22 14:44:18;;;;;;;308.85;170.60;;;12.90;1.00;;;;;;5047861;28;20056;-77
2022/12/22 14:47:08;;;;;;;262.48;149.25;;;12.90;1.00;;;;;;5049666;28;20060;-76
2022/12/22 14:49:43;;;;;;;257.80;144.25;;;12.90;1.00;;;;;;5047637;28;20487;-76
2022/12/22 14:52:19;;;;;;;262.70;154.23;;;12.90;1.00;;;;;;5048511;28;20412;-76
2022/12/22 14:54:48;;;;;;;259.85;155.20;;;12.90;1.00;;;;;;5050827;28;20053;-76
2022/12/22 14:57:21;;;;;;;258.27;153.63;;;12.80;1.00;;;;;;5052172;28;20056;-74
2022/12/22 15:00:01;;;;;;;278.83;165.82;;;12.70;1.00;;;;;;5052485;28;20067;-75
2022/12/22 15:02:31;;;;;;;292.85;177.63;;;12.60;1.00;;;;;;5054150;28;20099;-74
2022/12/22 15:05:26;;;;;;;310.45;184.32;;;12.50;1.00;;;;;;5053758;28;20068;-76
2022/12/22 15:07:56;;;;;;;322.88;195.18;;;12.50;1.00;;;;;;5040020;28;20059;-77
2022/12/22 15:10:26;;;;;;;327.50;201.52;;;12.40;1.00;;;;;;5056527;28;20116;-76
2022/12/22 15:12:58;;;;;;;319.88;195.15;;;12.30;50.40;;;;;;5055367;28;20049;-76
2022/12/22 15:15:27;;;;;;;330.83;200.00;;;12.30;99.90;;;;;;5061893;28;20109;-75
2022/12/22 15:17:55;;;;;;;319.50;190.30;;;12.30;99.90;;;;;;5073066;28;20049;-76
2022/12/22 15:20:24;;;;;;;296.83;173.30;;;12.20;99.90;;;;;;5058894;28;20041;-76
2022/12/22 15:22:52;;;;;;;274.80;167.35;;;12.20;99.90;;;;;;5068586;28;20045;-73
2022/12/22 15:25:21;;;;;;;274.50;165.95;;;12.20;99.90;;;;;;5053697;28;20055;-77
2022/12/22 15:27:49;;;;;;;262.40;155.00;;;12.20;99.90;;;;;;5051139;28;20045;-77
2022/12/22 15:30:20;;;;;;;271.88;168.30;;;12.10;99.90;;;;;;5053511;28;20041;-78
2022/12/22 15:32:49;;;;;;;291.08;174.55;;;12.00;99.90;;;;;;5051837;28;20063;-78
2022/12/22 15:35:19;;;;;;;241.95;141.80;;;12.00;99.90;;;;;;5052419;28;20071;-78
2022/12/22 15:37:46;;;;;;;280.85;172.38;;;12.00;99.90;;;;;;5050704;28;20056;-77
2022/12/22 15:40:19;;;;;;;299.30;178.98;;;11.90;99.90;;;;;;5053412;28;20048;-77
2022/12/22 15:42:47;;;;;;;284.38;176.23;;;11.90;1.00;;;;;;5053653;28;20044;-77
2022/12/22 15:45:15;;;;;;;295.95;175.50;;;11.90;1.00;;;;;;5051354;28;20049;-76
2022/12/22 15:47:45;;;;;;;329.13;204.13;;;12.00;1.00;;;;;;5051258;28;20033;-74
2022/12/22 15:50:19;;;;;;;329.55;195.50;;;11.90;1.00;;;;;;5054082;28;20424;-76
2022/12/22 15:52:51;;;;;;;343.25;206.35;;;11.90;1.00;;;;;;5055950;28;20051;-75
2022/12/22 15:55:20;;;;;;;336.90;210.70;;;11.90;1.00;;;;;;5062707;28;20129;-76
2022/12/22 15:57:49;;;;;;;269.38;161.38;;;11.90;1.00;;;;;;5055669;28;20045;-77
2022/12/22 16:00:19;;;;;;;337.33;198.82;;;11.80;1.00;;;;;;5055207;28;20144;-76
2022/12/22 16:02:47;;;;;;;375.35;236.07;;;11.80;26.30;;;;;;5061060;28;20048;-76
2022/12/22 16:05:17;;;;;;;320.67;195.27;;;11.70;99.90;;;;;;5079022;28;20048;-75
2022/12/22 16:07:46;;;;;;;278.80;169.75;;;11.60;1.00;;;;;;5065256;28;20033;-75
2022/12/22 16:10:23;;;;;;;282.45;173.50;;;11.50;99.90;;;;;;5066380;28;20044;-77
2022/12/22 16:12:58;;;;;;;334.75;210.48;;;11.50;99.90;;;;;;5067043;28;20037;-76
2022/12/22 16:15:27;;;;;;;350.27;224.65;;;11.50;99.90;;;;;;5061312;28;20044;-77
2022/12/22 16:17:54;;;;;;;362.73;224.80;;;11.50;99.90;;;;;;5061325;28;20049;-77
2022/12/22 16:20:24;;;;;;;381.85;237.85;;;11.50;99.90;;;;;;5062658;28;20037;-73
2022/12/22 16:22:52;;;;;;;451.10;288.63;;;11.50;99.90;;;;;;5055129;28;20044;-78
2022/12/22 16:25:24;;;;;;;467.48;298.98;;;11.50;1.00;;;;;;5054995;28;20048;-76